createdAt,value
2023-03-26T00:01:39.001Z,98.98
2023-03-26T00:04:06.749Z,98.95
2023-03-26T00:06:36.752Z,99.19
2023-03-26T00:09:04.411Z,99.36
2023-03-26T00:11:30.994Z,99.72
2023-03-26T00:13:57.914Z,99.49
2023-03-26T00:16:25.775Z,99.69
2023-03-26T00:18:53.473Z,99.45
2023-03-26T00:21:21.706Z,98.64
2023-03-26T00:23:49.162Z,97.96
2023-03-26T00:26:17.428Z,98.14
2023-03-26T00:28:43.962Z,98.08
2023-03-26T00:31:14.658Z,97.98
2023-03-26T00:33:41.787Z,97.99
2023-03-26T00:36:10.496Z,97.49
2023-03-26T00:38:39.115Z,97.59
2023-03-26T00:41:07.139Z,97.41
2023-03-26T00:43:35.290Z,98.09
2023-03-26T00:46:02.302Z,97.97
2023-03-26T00:48:44.526Z,97.12
2023-03-26T00:51:12.798Z,96.77
2023-03-26T00:53:41.252Z,97.73
2023-03-26T00:56:08.572Z,97.84
2023-03-26T00:58:35.671Z,97.17
2023-03-26T01:01:04.212Z,96.88
2023-03-26T01:03:35.341Z,97.44
2023-03-26T01:06:11.283Z,97.47
2023-03-26T01:08:42.791Z,99.76
2023-03-26T01:11:14.533Z,99.43
2023-03-26T01:13:51.243Z,98.83
2023-03-26T01:16:21.323Z,98.20
2023-03-26T01:18:48.619Z,97.77
2023-03-26T01:21:22.505Z,98.44
2023-03-26T01:23:57.234Z,99.23
2023-03-26T01:26:24.355Z,99.75
2023-03-26T01:28:54.540Z,100.00
2023-03-26T01:31:37.173Z,100.00
2023-03-26T01:34:12.302Z,100.00
2023-03-26T01:36:46.952Z,100.00
2023-03-26T01:39:22.093Z,100.00
2023-03-26T01:41:55.600Z,99.34
2023-03-26T01:44:37.374Z,100.00
2023-03-26T01:47:05.248Z,100.00
2023-03-26T01:49:31.852Z,100.00
2023-03-26T01:51:58.505Z,100.00
2023-03-26T01:54:26.939Z,100.00
2023-03-26T01:57:15.491Z,100.00
2023-03-26T02:00:01.891Z,100.00
2023-03-26T02:02:39.210Z,100.00
2023-03-26T02:05:15.294Z,100.00
2023-03-26T02:07:41.783Z,100.00
2023-03-26T02:10:21.136Z,100.00
2023-03-26T02:12:47.738Z,100.00
2023-03-26T02:15:14.193Z,100.00
2023-03-26T02:17:40.859Z,100.00
2023-03-26T02:20:09.960Z,100.00
2023-03-26T02:22:40.742Z,100.00
2023-03-26T02:25:09.626Z,100.00
2023-03-26T02:27:36.723Z,100.00
2023-03-26T02:30:07.282Z,100.00
2023-03-26T02:32:35.035Z,100.00
2023-03-26T02:35:02.342Z,100.00
2023-03-26T02:37:30.732Z,98.79
2023-03-26T02:40:11.005Z,100.00
2023-03-26T02:42:40.202Z,99.21
2023-03-26T02:45:07.011Z,99.16
2023-03-26T02:48:02.555Z,99.98
2023-03-26T02:50:37.979Z,100.00
2023-03-26T02:53:30.796Z,100.00
2023-03-26T02:56:29.816Z,98.53
2023-03-26T02:59:09.080Z,97.78
2023-03-26T03:01:36.934Z,98.63
2023-03-26T03:04:04.271Z,99.05
2023-03-26T03:06:40.560Z,98.21
2023-03-26T03:09:08.610Z,98.06
2023-03-26T03:11:35.547Z,97.88
2023-03-26T03:14:02.476Z,98.05
2023-03-26T03:16:31.030Z,99.42
2023-03-26T03:19:02.956Z,99.49
2023-03-26T03:21:39.580Z,100.00
2023-03-26T03:24:07.531Z,99.80
2023-03-26T03:26:42.321Z,99.28
2023-03-26T03:29:20.568Z,98.59
2023-03-26T03:31:47.715Z,98.36
2023-03-26T03:34:38.580Z,97.14
2023-03-26T03:37:05.863Z,97.54
2023-03-26T03:39:41.140Z,97.24
2023-03-26T03:42:08.384Z,97.66
2023-03-26T03:44:38.081Z,97.61
2023-03-26T03:47:13.845Z,99.72
2023-03-26T03:49:41.244Z,100.00
2023-03-26T03:52:08.047Z,99.22
2023-03-26T03:54:39.630Z,98.01
2023-03-26T03:57:28.596Z,98.89
2023-03-26T03:59:59.506Z,98.80
2023-03-26T04:02:34.604Z,99.21
2023-03-26T04:05:06.016Z,99.15
2023-03-26T04:07:32.964Z,98.51
2023-03-26T04:10:06.685Z,99.64
2023-03-26T04:12:55.808Z,100.00
2023-03-26T04:15:42.882Z,99.25
2023-03-26T04:18:12.819Z,97.95
2023-03-26T04:20:46.807Z,98.23
2023-03-26T04:23:19.601Z,98.80
2023-03-26T04:25:53.467Z,98.38
2023-03-26T04:28:28.763Z,98.11
2023-03-26T04:31:24.123Z,98.15
2023-03-26T04:33:56.346Z,98.24
2023-03-26T04:36:27.082Z,98.55
2023-03-26T04:38:54.127Z,98.97
2023-03-26T04:41:27.380Z,98.47
2023-03-26T04:44:01.842Z,98.53
2023-03-26T04:46:28.829Z,97.56
2023-03-26T04:49:05.461Z,98.50
2023-03-26T04:51:38.124Z,98.60
2023-03-26T04:54:12.693Z,98.71
2023-03-26T04:56:52.660Z,97.67
2023-03-26T04:59:34.566Z,98.08
2023-03-26T05:02:05.108Z,98.08
2023-03-26T05:04:43.633Z,98.58
2023-03-26T05:07:11.148Z,98.44
2023-03-26T05:09:45.697Z,98.26
2023-03-26T05:12:16.558Z,98.89
2023-03-26T05:14:55.897Z,99.55
2023-03-26T05:17:43.628Z,98.06
2023-03-26T05:20:20.767Z,98.50
2023-03-26T05:22:48.037Z,97.76
2023-03-26T05:25:20.805Z,99.10
2023-03-26T05:27:48.278Z,98.91
2023-03-26T05:30:16.398Z,98.95
2023-03-26T05:32:48.770Z,98.61
2023-03-26T05:35:18.478Z,98.53
2023-03-26T05:37:45.982Z,97.69
2023-03-26T05:40:14.773Z,98.33
2023-03-26T05:42:46.017Z,98.18
2023-03-26T05:45:47.213Z,98.20
2023-03-26T05:48:25.451Z,98.38
2023-03-26T05:50:53.827Z,98.88
2023-03-26T05:53:21.514Z,100.00
2023-03-26T05:56:06.965Z,100.00
2023-03-26T05:58:59.534Z,100.00
2023-03-26T06:01:46.233Z,100.00
2023-03-26T06:04:32.072Z,95.57
2023-03-26T06:07:18.780Z,97.21
2023-03-26T06:09:56.377Z,95.85
2023-03-26T06:12:22.940Z,97.14
2023-03-26T06:14:49.485Z,96.16
2023-03-26T06:17:19.371Z,96.22
2023-03-26T06:20:09.253Z,96.26
2023-03-26T06:22:42.136Z,97.15
2023-03-26T06:25:24.575Z,98.56
2023-03-26T06:28:06.052Z,99.42
2023-03-26T06:31:01.832Z,98.68
2023-03-26T06:33:37.352Z,98.06
2023-03-26T06:36:04.780Z,97.60
2023-03-26T06:38:31.362Z,97.54
2023-03-26T06:41:04.561Z,95.39
2023-03-26T06:44:00.276Z,97.12
2023-03-26T06:46:55.908Z,97.13
2023-03-26T06:49:43.115Z,94.24
2023-03-26T06:52:35.899Z,92.26
2023-03-26T06:55:22.973Z,92.86
2023-03-26T06:58:11.431Z,92.38
2023-03-26T07:00:56.910Z,90.51
2023-03-26T07:03:41.991Z,90.41
2023-03-26T07:06:27.117Z,87.37
2023-03-26T07:09:12.410Z,82.33
2023-03-26T07:11:41.547Z,81.84
2023-03-26T07:14:27.993Z,81.12
2023-03-26T07:17:20.661Z,82.59
2023-03-26T07:20:08.088Z,84.92
2023-03-26T07:22:35.129Z,85.87
2023-03-26T07:25:04.754Z,84.09
2023-03-26T07:28:00.211Z,84.73
2023-03-26T07:30:43.660Z,84.00
2023-03-26T07:33:28.593Z,82.66
2023-03-26T07:36:25.075Z,78.59
2023-03-26T07:39:14.471Z,82.15
2023-03-26T07:42:05.896Z,83.06
2023-03-26T07:44:51.048Z,80.42
2023-03-26T07:47:33.668Z,83.47
2023-03-26T07:50:25.423Z,81.90
2023-03-26T07:53:09.135Z,81.24
2023-03-26T07:56:02.822Z,83.04
2023-03-26T07:58:55.708Z,83.55
2023-03-26T08:01:51.466Z,83.50
2023-03-26T08:04:42.506Z,81.01
2023-03-26T08:07:39.509Z,79.91
2023-03-26T08:10:26.173Z,80.38
2023-03-26T08:13:10.804Z,81.02
2023-03-26T08:15:43.979Z,79.09
2023-03-26T08:18:13.720Z,75.82
2023-03-26T08:20:44.848Z,79.99
2023-03-26T08:23:11.266Z,78.99
2023-03-26T08:25:52.626Z,77.32
2023-03-26T08:28:28.239Z,75.91
2023-03-26T08:30:57.762Z,75.96
2023-03-26T08:33:27.040Z,79.16
2023-03-26T08:35:53.575Z,76.59
2023-03-26T08:38:20.926Z,75.26
2023-03-26T08:40:50.443Z,75.76
2023-03-26T08:43:35.805Z,74.85
2023-03-26T08:46:12.713Z,75.36
2023-03-26T08:48:57.944Z,73.62
2023-03-26T08:51:27.840Z,77.89
2023-03-26T08:54:15.604Z,77.55
2023-03-26T08:56:42.316Z,76.86
2023-03-26T08:59:21.413Z,78.15
2023-03-26T09:01:50.981Z,77.11
2023-03-26T09:04:38.276Z,75.05
2023-03-26T09:07:20.420Z,76.08
2023-03-26T09:10:03.030Z,76.60
2023-03-26T09:12:44.663Z,73.15
2023-03-26T09:15:40.388Z,71.69
2023-03-26T09:18:06.921Z,69.46
2023-03-26T09:20:54.629Z,71.62
2023-03-26T09:23:31.868Z,71.38
2023-03-26T09:26:15.485Z,70.84
2023-03-26T09:29:02.962Z,70.35
2023-03-26T09:31:29.417Z,65.78
2023-03-26T09:34:03.110Z,65.35
2023-03-26T09:36:44.946Z,68.17
2023-03-26T09:39:27.960Z,66.36
2023-03-26T09:42:12.960Z,64.15
2023-03-26T09:44:58.113Z,67.01
2023-03-26T09:47:38.458Z,62.67
2023-03-26T09:50:24.192Z,58.75
2023-03-26T09:52:59.688Z,64.45
2023-03-26T09:55:26.168Z,60.40
2023-03-26T09:57:54.187Z,60.81
2023-03-26T10:00:24.017Z,59.96
2023-03-26T10:03:03.894Z,60.24
2023-03-26T10:05:41.360Z,61.36
2023-03-26T10:08:11.128Z,58.48
2023-03-26T10:10:43.743Z,58.39
2023-03-26T10:13:19.285Z,58.59
2023-03-26T10:16:07.171Z,59.32
2023-03-26T10:18:36.608Z,56.47
2023-03-26T10:21:07.039Z,58.63
2023-03-26T10:23:54.014Z,57.29
2023-03-26T10:26:28.849Z,55.03
2023-03-26T10:29:08.709Z,51.90
2023-03-26T10:31:38.207Z,49.65
2023-03-26T10:34:29.225Z,48.39
2023-03-26T10:37:16.143Z,48.34
2023-03-26T10:39:43.616Z,47.22
2023-03-26T10:42:13.166Z,46.21
2023-03-26T10:45:02.897Z,46.83
2023-03-26T10:47:34.962Z,49.01
2023-03-26T10:50:25.587Z,47.68
2023-03-26T10:53:10.253Z,49.24
2023-03-26T10:55:48.257Z,49.30
2023-03-26T10:58:20.444Z,50.41
2023-03-26T11:00:56.789Z,47.74
2023-03-26T11:03:30.044Z,49.18
2023-03-26T11:06:00.367Z,48.53
2023-03-26T11:08:35.509Z,50.15
2023-03-26T11:11:05.287Z,50.28
2023-03-26T11:13:55.566Z,50.08
2023-03-26T11:16:28.171Z,49.86
2023-03-26T11:19:09.801Z,48.24
2023-03-26T11:21:43.147Z,48.81
2023-03-26T11:24:28.622Z,49.42
2023-03-26T11:26:57.845Z,49.63
2023-03-26T11:30:01.219Z,48.46
2023-03-26T11:32:35.550Z,50.43
2023-03-26T11:35:08.216Z,47.74
2023-03-26T11:37:46.919Z,47.64
2023-03-26T11:40:16.271Z,45.74
2023-03-26T11:42:43.621Z,46.66
2023-03-26T11:45:31.743Z,48.07
2023-03-26T11:48:15.035Z,47.95
2023-03-26T11:50:47.105Z,47.52
2023-03-26T11:53:18.593Z,46.93
2023-03-26T11:55:53.680Z,46.29
2023-03-26T11:58:39.053Z,46.00
2023-03-26T12:01:13.182Z,44.53
2023-03-26T12:03:40.499Z,42.87
2023-03-26T12:06:22.610Z,43.88
2023-03-26T12:08:49.904Z,44.85
2023-03-26T12:11:18.369Z,44.94
2023-03-26T12:13:51.121Z,46.37
2023-03-26T12:16:19.539Z,46.88
2023-03-26T12:18:47.441Z,45.29
2023-03-26T12:21:15.406Z,45.95
2023-03-26T12:23:56.384Z,45.87
2023-03-26T12:26:37.484Z,49.27
2023-03-26T12:29:09.069Z,46.64
2023-03-26T12:31:54.338Z,45.27
2023-03-26T12:34:22.371Z,43.57
2023-03-26T12:36:54.503Z,43.54
2023-03-26T12:40:07.795Z,44.06
2023-03-26T12:44:44.921Z,45.05
2023-03-26T12:45:23.821Z,46.11
2023-03-26T12:48:00.068Z,45.08
2023-03-26T12:50:51.800Z,43.20
2023-03-26T12:53:33.469Z,43.15
2023-03-26T12:56:08.577Z,45.09
2023-03-26T12:58:44.971Z,45.98
2023-03-26T13:01:28.290Z,46.99
2023-03-26T13:04:04.025Z,47.00
2023-03-26T13:06:30.547Z,47.95
2023-03-26T13:09:00.378Z,47.79
2023-03-26T13:11:36.052Z,46.62
2023-03-26T13:14:07.610Z,50.38
2023-03-26T13:16:36.468Z,49.80
2023-03-26T13:19:32.625Z,47.31
2023-03-26T13:21:59.070Z,46.80
2023-03-26T13:24:47.084Z,47.14
2023-03-26T13:27:16.745Z,47.23
2023-03-26T13:29:56.210Z,47.54
2023-03-26T13:32:22.715Z,45.76
2023-03-26T13:35:08.308Z,47.49
2023-03-26T13:37:37.751Z,48.25
2023-03-26T13:40:10.025Z,46.08
2023-03-26T13:42:37.809Z,49.04
2023-03-26T13:45:16.515Z,49.13
2023-03-26T13:47:45.863Z,48.14
2023-03-26T13:50:18.476Z,49.02
2023-03-26T13:52:48.208Z,46.91
2023-03-26T13:55:14.613Z,47.68
2023-03-26T13:57:50.160Z,48.42
2023-03-26T14:00:23.173Z,50.45
2023-03-26T14:02:53.513Z,47.01
2023-03-26T14:05:23.098Z,47.74
2023-03-26T14:07:52.583Z,48.37
2023-03-26T14:10:31.026Z,47.51
2023-03-26T14:13:16.239Z,47.72
2023-03-26T14:15:56.051Z,48.56
2023-03-26T14:18:27.484Z,50.43
2023-03-26T14:21:08.317Z,49.18
2023-03-26T14:23:35.115Z,50.99
2023-03-26T14:26:01.565Z,50.73
2023-03-26T14:28:34.201Z,51.88
2023-03-26T14:31:00.646Z,49.67
2023-03-26T14:33:27.908Z,50.32
2023-03-26T14:36:14.890Z,49.89
2023-03-26T14:38:44.403Z,49.90
2023-03-26T14:41:23.068Z,50.53
2023-03-26T14:43:59.536Z,49.87
2023-03-26T14:46:38.240Z,50.48
2023-03-26T14:49:16.548Z,50.23
2023-03-26T14:51:53.167Z,50.18
2023-03-26T14:54:22.492Z,50.45
2023-03-26T14:56:52.141Z,50.33
2023-03-26T14:59:24.732Z,50.25
2023-03-26T15:01:57.460Z,49.22
2023-03-26T15:04:27.055Z,49.62
2023-03-26T15:07:02.829Z,49.02
2023-03-26T15:09:49.876Z,49.30
2023-03-26T15:12:22.072Z,49.84
2023-03-26T15:15:10.449Z,50.95
2023-03-26T15:17:43.197Z,49.58
2023-03-26T15:20:25.942Z,49.84
2023-03-26T15:23:01.555Z,49.97
2023-03-26T15:25:27.992Z,50.06
2023-03-26T15:28:13.427Z,49.89
2023-03-26T15:31:06.609Z,52.17
2023-03-26T15:33:35.975Z,50.89
2023-03-26T15:36:14.055Z,50.96
2023-03-26T15:38:52.766Z,50.83
2023-03-26T15:41:38.180Z,51.15
2023-03-26T15:44:24.938Z,51.87
2023-03-26T15:46:51.804Z,53.38
2023-03-26T15:49:36.659Z,54.43
2023-03-26T15:52:22.052Z,54.74
2023-03-26T15:54:48.508Z,55.82
2023-03-26T15:57:18.042Z,57.28
2023-03-26T15:59:56.337Z,59.43
2023-03-26T16:02:39.902Z,61.89
2023-03-26T16:05:25.253Z,65.81
2023-03-26T16:07:58.878Z,65.80
2023-03-26T16:10:40.776Z,65.73
2023-03-26T16:13:19.198Z,64.97
2023-03-26T16:16:12.186Z,68.51
2023-03-26T16:18:53.494Z,65.28
2023-03-26T16:21:34.406Z,67.74
2023-03-26T16:26:47.489Z,68.54
2023-03-26T16:29:18.127Z,66.60
2023-03-26T16:32:00.580Z,67.19
2023-03-26T16:34:38.849Z,68.02
2023-03-26T16:37:08.014Z,69.90
2023-03-26T16:39:38.943Z,74.53
2023-03-26T16:42:29.554Z,73.59
2023-03-26T16:45:02.293Z,78.03
2023-03-26T16:47:38.629Z,77.93
2023-03-26T16:50:21.273Z,77.93
2023-03-26T16:52:47.833Z,76.59
2023-03-26T16:55:29.864Z,80.74
2023-03-26T16:58:11.610Z,81.92
2023-03-26T17:00:43.897Z,84.10
2023-03-26T17:03:31.744Z,87.00
2023-03-26T17:06:03.412Z,88.78
2023-03-26T17:08:37.734Z,86.95
2023-03-26T17:11:04.240Z,85.39
2023-03-26T17:13:31.038Z,85.95
2023-03-26T17:16:14.712Z,89.33
2023-03-26T17:18:41.410Z,89.25
2023-03-26T17:21:15.565Z,90.03
2023-03-26T17:23:45.317Z,92.45
2023-03-26T17:26:18.805Z,94.77
2023-03-26T17:28:50.687Z,95.94
2023-03-26T17:31:40.307Z,96.88
2023-03-26T17:34:25.391Z,96.55
2023-03-26T17:36:56.341Z,95.47
2023-03-26T17:39:41.932Z,94.77
2023-03-26T17:42:18.764Z,95.49
2023-03-26T17:44:55.612Z,93.77
2023-03-26T17:47:41.212Z,94.50
2023-03-26T17:50:13.875Z,95.86
2023-03-26T17:52:47.892Z,95.10
2023-03-26T17:55:16.764Z,94.72
2023-03-26T17:57:44.180Z,96.94
2023-03-26T18:00:18.411Z,95.31
2023-03-26T18:02:48.347Z,95.72
2023-03-26T18:05:16.704Z,94.70
2023-03-26T18:07:49.314Z,93.62
2023-03-26T18:10:35.114Z,95.04
2023-03-26T18:13:04.572Z,92.56
2023-03-26T18:15:49.868Z,95.25
2023-03-26T18:18:19.897Z,95.69
2023-03-26T18:20:47.924Z,95.98
2023-03-26T18:23:26.590Z,95.32
2023-03-26T18:25:58.087Z,95.81
2023-03-26T18:28:34.204Z,95.29
2023-03-26T18:31:16.437Z,95.49
2023-03-26T18:33:44.863Z,96.91
2023-03-26T18:36:11.844Z,98.73
2023-03-26T18:38:40.022Z,99.15
2023-03-26T18:41:09.725Z,99.41
2023-03-26T18:43:43.902Z,99.17
2023-03-26T18:46:12.546Z,99.94
2023-03-26T18:48:39.439Z,100.00
2023-03-26T18:51:06.707Z,100.00
2023-03-26T18:53:38.903Z,100.00
2023-03-26T18:56:24.173Z,100.00
2023-03-26T18:58:51.765Z,100.00
2023-03-26T19:01:25.374Z,100.00
2023-03-26T19:03:53.600Z,100.00
2023-03-26T19:06:20.925Z,100.00
2023-03-26T19:08:47.946Z,100.00
2023-03-26T19:11:16.442Z,100.00
2023-03-26T19:13:42.987Z,100.00
2023-03-26T19:16:17.333Z,100.00
2023-03-26T19:18:44.499Z,100.00
2023-03-26T19:21:11.098Z,99.28
2023-03-26T19:23:38.899Z,95.50
2023-03-26T19:26:06.840Z,94.00
2023-03-26T19:28:39.048Z,92.47
2023-03-26T19:31:10.324Z,92.51
2023-03-26T19:33:39.311Z,92.51
2023-03-26T19:36:17.756Z,91.76
2023-03-26T19:38:54.554Z,90.74
2023-03-26T19:41:21.485Z,90.75
2023-03-26T19:43:48.774Z,90.41
2023-03-26T19:46:15.356Z,89.11
2023-03-26T19:48:45.596Z,90.95
2023-03-26T19:51:32.754Z,91.13
2023-03-26T19:54:00.868Z,92.26
2023-03-26T19:56:27.473Z,92.28
2023-03-26T19:58:54.422Z,92.98
2023-03-26T20:01:23.555Z,95.06
2023-03-26T20:03:58.891Z,95.37
2023-03-26T20:08:57.892Z,94.69
2023-03-26T20:11:30.588Z,95.19
2023-03-26T20:13:57.046Z,93.67
2023-03-26T20:16:25.656Z,94.09
2023-03-26T20:18:52.193Z,91.04
2023-03-26T20:21:18.664Z,93.00
2023-03-26T20:23:45.204Z,91.60
2023-03-26T20:26:13.620Z,91.59
2023-03-26T20:28:47.508Z,91.97
2023-03-26T20:31:25.177Z,92.39
2023-03-26T20:33:52.579Z,94.13
2023-03-26T20:36:33.916Z,91.27
2023-03-26T20:39:02.513Z,94.11
2023-03-26T20:41:29.060Z,97.93
2023-03-26T20:43:55.646Z,97.67
2023-03-26T20:46:23.279Z,95.14
2023-03-26T20:48:58.082Z,96.32
2023-03-26T20:51:24.567Z,96.61
2023-03-26T20:53:51.015Z,97.19
2023-03-26T20:56:18.552Z,96.79
2023-03-26T20:58:45.670Z,97.33
2023-03-26T21:01:13.161Z,99.71
2023-03-26T21:03:40.684Z,99.22
2023-03-26T21:06:13.295Z,100.00
2023-03-26T21:08:41.306Z,100.00
2023-03-26T21:11:13.553Z,100.00
2023-03-26T21:14:00.152Z,100.00
2023-03-26T21:16:26.818Z,100.00
2023-03-26T21:18:53.519Z,100.00
2023-03-26T21:21:26.102Z,100.00
2023-03-26T21:23:59.377Z,100.00
2023-03-26T21:26:45.164Z,100.00
2023-03-26T21:29:12.067Z,100.00
2023-03-26T21:31:38.696Z,100.00
2023-03-26T21:34:05.610Z,99.37
2023-03-26T21:36:32.342Z,99.26
2023-03-26T21:38:59.104Z,99.43
2023-03-26T21:41:25.682Z,99.91
2023-03-26T21:43:52.147Z,99.89
2023-03-26T21:46:18.803Z,100.00
2023-03-26T21:48:45.488Z,100.00
2023-03-26T21:51:14.761Z,100.00
2023-03-26T21:53:42.445Z,100.00
2023-03-26T21:56:11.915Z,100.00
2023-03-26T21:58:47.758Z,99.96
2023-03-26T22:01:20.633Z,100.00
2023-03-26T22:03:56.410Z,100.00
2023-03-26T22:06:22.840Z,99.85
2023-03-26T22:08:49.360Z,98.36
2023-03-26T22:11:15.795Z,98.38
2023-03-26T22:13:42.345Z,98.63
2023-03-26T22:16:09.821Z,98.39
2023-03-26T22:18:36.608Z,99.42
2023-03-26T22:21:03.340Z,99.81
2023-03-26T22:23:34.199Z,97.29
2023-03-26T22:26:00.781Z,96.91
2023-03-26T22:28:27.656Z,98.69
2023-03-26T22:30:54.427Z,98.99
2023-03-26T22:33:21.270Z,98.78
2023-03-26T22:35:47.820Z,98.02
2023-03-26T22:38:14.943Z,97.62
2023-03-26T22:40:41.437Z,98.62
2023-03-26T22:43:07.906Z,99.10
2023-03-26T22:45:34.836Z,100.00
2023-03-26T22:48:04.484Z,100.00
2023-03-26T22:50:31.817Z,100.00
2023-03-26T22:52:58.298Z,100.00
2023-03-26T22:55:28.632Z,100.00
2023-03-26T22:57:56.355Z,100.00
2023-03-26T23:00:22.863Z,99.97
2023-03-26T23:02:49.995Z,100.00
2023-03-26T23:05:19.558Z,99.61
2023-03-26T23:07:46.234Z,98.99
2023-03-26T23:10:13.317Z,100.00
2023-03-26T23:12:40.243Z,97.75
2023-03-26T23:15:07.979Z,98.09
2023-03-26T23:17:35.523Z,98.29
2023-03-26T23:20:03.099Z,99.43
2023-03-26T23:22:29.578Z,98.96
2023-03-26T23:24:56.110Z,99.89
2023-03-26T23:27:22.859Z,100.00
2023-03-26T23:29:49.422Z,100.00
2023-03-26T23:32:23.976Z,100.00
2023-03-26T23:34:52.565Z,100.00
2023-03-26T23:37:22.940Z,100.00
2023-03-26T23:39:49.891Z,100.00
2023-03-26T23:42:16.454Z,100.00
2023-03-26T23:44:56.590Z,100.00
2023-03-26T23:47:23.169Z,100.00
2023-03-26T23:49:49.824Z,100.00
2023-03-26T23:52:16.282Z,100.00
2023-03-26T23:54:42.725Z,100.00
2023-03-26T23:57:09.365Z,100.00
2023-03-26T23:59:35.961Z,100.00
